Time;durP1;ratioP1;P1;durP2;ratioP2;P2;SDS_P1;SDS_P2;PMS_P1;PMS_P2;Temp;Humidity;BMP_temperature;BMP_pressure;BME280_temperature;BME280_humidity;BME280_pressure;Samples;Min_cycle;Max_cycle;Signal;HPM_P1;HPM_P2
2022/08/21 00:04:55;;;;;;;16.80;11.80;;;;;;;19.20;100.00;98220.77;109702;1277;1018844;-79
2022/08/21 00:11:49;;;;;;;15.80;12.20;;;;;;;19.24;100.00;98220.90;109791;1276;1016644;-80
2022/08/21 00:17:34;;;;;;;12.40;8.90;;;;;;;19.26;100.00;98217.90;109698;1278;1016723;-79
2022/08/21 00:23:06;;;;;;;9.60;7.40;;;;;;;19.26;100.00;98203.94;109812;1277;1019064;-79
2022/08/21 00:29:12;;;;;;;8.70;6.20;;;;;;;19.24;100.00;98190.65;109795;1277;1016999;-79
2022/08/21 00:34:15;;;;;;;5.60;5.10;;;;;;;19.24;100.00;98181.88;109810;1276;1016557;-79
2022/08/21 00:39:17;;;;;;;8.10;5.30;;;;;;;19.24;100.00;98178.00;109858;1277;1020699;-79
2022/08/21 00:44:36;;;;;;;7.20;5.90;;;;;;;19.26;100.00;98176.55;110020;1276;1016292;-80
2022/08/21 00:50:11;;;;;;;8.40;6.20;;;;;;;19.30;100.00;98176.55;109786;1276;1016497;-79
2022/08/21 00:55:28;;;;;;;9.20;6.60;;;;;;;19.35;100.00;98169.04;109819;1277;1016286;-80
2022/08/21 01:00:44;;;;;;;8.70;6.30;;;;;;;19.38;100.00;98167.77;109783;1276;1016667;-80
2022/08/21 01:05:55;;;;;;;7.40;5.00;;;;;;;19.41;100.00;98151.29;109686;1279;1016760;-80
2022/08/21 01:11:05;;;;;;;6.50;5.20;;;;;;;19.43;100.00;98139.98;109889;1276;1016325;-80
2022/08/21 01:16:29;;;;;;;6.50;4.40;;;;;;;19.42;100.00;98140.66;109865;1277;1016714;-80
2022/08/21 01:21:35;;;;;;;4.80;3.80;;;;;;;19.41;100.00;98135.94;109776;1277;1016641;-79
2022/08/21 01:26:42;;;;;;;6.40;4.30;;;;;;;19.41;100.00;98133.06;109714;1277;1016665;-80
2022/08/21 01:31:53;;;;;;;5.90;4.20;;;;;;;19.41;100.00;98123.74;109799;1276;1018992;-80
2022/08/21 01:37:04;;;;;;;12.50;4.20;;;;;;;19.39;100.00;98114.95;109835;1277;1017165;-81
2022/08/21 01:42:37;;;;;;;4.30;3.20;;;;;;;19.38;100.00;98104.07;109866;1276;1016117;-81
2022/08/21 01:47:43;;;;;;;5.40;3.40;;;;;;;19.36;100.00;98099.45;108986;1276;1726395;-80
2022/08/21 01:52:51;;;;;;;4.90;3.40;;;;;;;19.35;100.00;98092.46;109883;1276;1016402;-80
2022/08/21 01:57:54;;;;;;;4.50;2.80;;;;;;;19.34;100.00;98081.59;109740;1276;1016854;-78
2022/08/21 02:03:05;;;;;;;4.60;3.00;;;;;;;19.33;100.00;98081.16;109848;1276;1016317;-77
2022/08/21 02:08:33;;;;;;;3.50;2.40;;;;;;;19.31;100.00;98074.63;109838;1276;1018959;-79
2022/08/21 02:13:45;;;;;;;2.90;2.20;;;;;;;19.31;100.00;98068.48;109861;1277;1016391;-79
2022/08/21 02:18:52;;;;;;;5.00;2.60;;;;;;;19.28;100.00;98062.95;109751;1279;1016511;-80
2022/08/21 02:23:57;;;;;;;2.60;2.30;;;;;;;19.26;100.00;98057.55;109709;1280;1016132;-78
2022/08/21 02:29:08;;;;;;;5.10;2.80;;;;;;;19.23;100.00;98065.51;109595;1279;1017726;-79
2022/08/21 02:34:27;;;;;;;4.50;2.60;;;;;;;19.22;100.00;98069.44;109644;1279;1016640;-79
2022/08/21 02:39:35;;;;;;;3.40;2.50;;;;;;;19.21;100.00;98066.64;109546;1279;1016608;-79
2022/08/21 02:44:46;;;;;;;3.90;2.70;;;;;;;19.20;100.00;98068.55;109742;1277;1016685;-80
2022/08/21 02:49:58;;;;;;;5.00;2.90;;;;;;;19.21;100.00;98076.71;109788;1276;1016473;-80
2022/08/21 02:55:11;;;;;;;4.70;3.70;;;;;;;19.21;100.00;98070.20;109826;1278;1017231;-79
2022/08/21 03:00:16;;;;;;;5.40;3.90;;;;;;;19.22;100.00;98073.08;109705;1279;1016603;-77
2022/08/21 03:05:45;;;;;;;6.30;4.40;;;;;;;19.25;100.00;98068.41;109631;1280;1016620;-79
2022/08/21 03:11:00;;;;;;;7.50;4.70;;;;;;;19.26;100.00;98064.54;109554;1280;1016668;-79
2022/08/21 03:16:14;;;;;;;6.40;4.70;;;;;;;19.25;100.00;98065.93;109442;1279;1018341;-79
2022/08/21 03:21:23;;;;;;;8.20;5.30;;;;;;;19.26;100.00;98070.35;109528;1279;1016601;-80
2022/08/21 03:26:38;;;;;;;8.60;5.00;;;;;;;19.27;100.00;98080.54;109643;1280;1016747;-79
2022/08/21 03:32:10;;;;;;;8.10;5.50;;;;;;;19.28;100.00;98082.59;109751;1276;1015981;-79
2022/08/21 03:37:16;;;;;;;7.10;5.20;;;;;;;19.29;100.00;98085.92;109614;1277;1015990;-79
2022/08/21 03:42:28;;;;;;;8.70;6.20;;;;;;;19.31;100.00;98091.55;109756;1277;1016649;-79
2022/08/21 03:48:28;;;;;;;11.40;6.30;;;;;;;19.32;100.00;98093.97;109825;1277;1016653;-78
2022/08/21 03:53:40;;;;;;;8.30;6.80;;;;;;;19.32;100.00;98095.67;109864;1277;1016665;-79
2022/08/21 03:59:03;;;;;;;9.60;7.00;;;;;;;19.35;100.00;98096.56;109785;1276;1015941;-78
2022/08/21 04:04:42;;;;;;;10.30;8.40;;;;;;;19.38;100.00;98097.01;109752;1280;1016213;-78
2022/08/21 04:10:28;;;;;;;10.20;8.00;;;;;;;19.42;100.00;98105.45;109606;1278;1016641;-78
2022/08/21 04:15:44;;;;;;;13.00;8.50;;;;;;;19.47;100.00;98103.58;109425;1280;1016776;-79
2022/08/21 04:21:11;;;;;;;12.00;8.70;;;;;;;19.51;100.00;98108.69;109624;1280;1015899;-79
2022/08/21 04:26:26;;;;;;;12.50;9.10;;;;;;;19.55;100.00;98112.09;109707;1277;1016232;-78
2022/08/21 04:31:40;;;;;;;10.70;7.70;;;;;;;19.56;100.00;98112.74;109672;1277;1017130;-80
2022/08/21 04:36:52;;;;;;;9.20;6.90;;;;;;;19.58;100.00;98115.25;109774;1277;1017776;-79
2022/08/21 04:41:55;;;;;;;10.60;7.80;;;;;;;19.55;100.00;98118.70;109813;1275;1016831;-78
2022/08/21 04:47:18;;;;;;;12.50;6.90;;;;;;;19.50;100.00;98119.08;109862;1277;1016589;-79
2022/08/21 04:52:42;;;;;;;9.00;6.50;;;;;;;19.46;100.00;98124.06;109883;1277;1016667;-80
2022/08/21 04:57:53;;;;;;;9.40;6.20;;;;;;;19.39;100.00;98125.43;109839;1277;1018211;-80
2022/08/21 05:03:23;;;;;;;7.20;5.00;;;;;;;19.34;100.00;98131.64;109924;1276;1017194;-79
2022/08/21 05:09:08;;;;;;;;;;;;;;;;;;;;;
2022/08/21 05:15:05;;;;;;;8.90;5.70;;;;;;;19.08;100.00;98153.29;109844;1277;1017268;-80
2022/08/21 05:20:12;;;;;;;10.90;5.60;;;;;;;19.00;100.00;98164.52;109857;1277;1016349;-80
2022/08/21 05:25:16;;;;;;;7.80;5.30;;;;;;;18.93;100.00;98168.66;109883;1277;1017050;-81
2022/08/21 05:30:31;;;;;;;8.10;5.60;;;;;;;18.86;100.00;98179.20;109696;1277;1016470;-81
2022/08/21 05:35:58;;;;;;;5.10;4.60;;;;;;;18.77;100.00;98184.29;109707;1281;1016939;-81
2022/08/21 05:41:27;;;;;;;4.80;3.40;;;;;;;18.63;100.00;98190.15;109703;1278;1017091;-80
2022/08/21 05:47:31;;;;;;;3.00;2.00;;;;;;;18.47;100.00;98193.08;109732;1281;1016984;-81
2022/08/21 05:53:38;;;;;;;;;;;;;;;;;;;;;
2022/08/21 05:59:29;;;;;;;;;;;;;;;;;;;;;
2022/08/21 06:05:23;;;;;;;3.80;1.50;;;;;;;17.98;100.00;98183.61;109722;1281;1016592;-81
2022/08/21 06:11:00;;;;;;;2.70;1.50;;;;;;;17.91;100.00;98173.46;109858;1281;1016405;-80
2022/08/21 06:16:21;;;;;;;3.70;1.70;;;;;;;17.84;100.00;98175.84;109967;1277;1017104;-81
2022/08/21 06:21:52;;;;;;;2.70;1.70;;;;;;;17.81;100.00;98156.81;110198;1277;1017539;-81
2022/08/21 06:27:39;;;;;;;3.30;1.80;;;;;;;17.83;100.00;98161.41;110169;1277;1018419;-81
2022/08/21 06:33:19;;;;;;;;;;;;;;;;;;;;;
2022/08/21 06:38:47;;;;;;;1.80;1.30;;;;;;;17.85;100.00;98172.22;110250;1278;1018938;-79
2022/08/21 06:45:28;;;;;;;1.20;1.00;;;;;;;17.77;100.00;98169.48;110233;1277;1015936;-80
2022/08/21 06:50:46;;;;;;;1.30;0.80;;;;;;;17.71;100.00;98179.10;110247;1276;1016390;-79
2022/08/21 06:56:25;;;;;;;1.20;0.70;;;;;;;17.63;100.00;98184.71;110335;1277;1016598;-79
2022/08/21 07:02:32;;;;;;;1.10;0.60;;;;;;;17.61;100.00;98184.73;110084;1277;1016512;-78
2022/08/21 07:07:48;;;;;;;2.00;0.40;;;;;;;17.58;100.00;98173.52;110191;1275;1016179;-81
2022/08/21 07:13:17;;;;;;;1.10;0.40;;;;;;;17.62;100.00;98165.88;110112;1278;1017261;-80
2022/08/21 07:19:02;;;;;;;0.50;0.50;;;;;;;17.70;100.00;98185.41;110150;1277;1016517;-78
2022/08/21 07:24:23;;;;;;;1.10;0.60;;;;;;;17.84;100.00;98199.59;110297;1277;1016603;-80
2022/08/21 07:29:50;;;;;;;0.50;0.50;;;;;;;17.99;100.00;98201.37;109966;1277;1016605;-79
2022/08/21 07:35:10;;;;;;;0.70;0.30;;;;;;;18.02;100.00;98203.52;110016;1277;1016405;-77
2022/08/21 07:40:25;;;;;;;1.40;0.70;;;;;;;17.99;100.00;98212.13;110206;1277;1016200;-78
2022/08/21 07:45:51;;;;;;;0.70;0.40;;;;;;;18.00;100.00;98215.55;109950;1277;1016376;-79
2022/08/21 07:51:40;;;;;;;;;;;;;;;;;;;;;
2022/08/21 07:56:53;;;;;;;1.10;0.60;;;;;;;18.29;100.00;98220.26;109705;1281;1020293;-77
2022/08/21 08:01:56;;;;;;;2.00;0.80;;;;;;;18.40;100.00;98217.61;109632;1281;1016177;-76
2022/08/21 08:07:12;;;;;;;2.00;1.00;;;;;;;18.44;100.00;98217.17;109535;1281;1016683;-77
2022/08/21 08:13:02;;;;;;;3.10;1.40;;;;;;;18.61;100.00;98225.29;109808;1284;1016757;-76
2022/08/21 08:18:34;;;;;;;3.80;1.80;;;;;;;18.73;100.00;98218.85;109396;1284;1016420;-77
2022/08/21 08:24:25;;;;;;;3.90;2.80;;;;;;;18.87;100.00;98214.84;109847;1280;1018526;-77
2022/08/21 08:30:02;;;;;;;5.40;3.30;;;;;;;18.97;100.00;98211.71;109752;1281;1016681;-76
2022/08/21 08:35:35;;;;;;;3.20;2.70;;;;;;;19.08;100.00;98216.09;109752;1279;1016510;-76
2022/08/21 08:46:51;;;;;;;4.50;3.10;;;;;;;19.31;100.00;98219.95;109736;1276;1016597;-76
2022/08/21 08:52:38;;;;;;;3.50;3.20;;;;;;;19.35;100.00;98224.11;109915;1277;1016445;-76
2022/08/21 08:57:45;;;;;;;5.00;4.50;;;;;;;19.34;100.00;98221.61;109729;1276;1016614;-76
2022/08/21 09:02:59;;;;;;;5.70;4.50;;;;;;;19.21;100.00;98220.62;109850;1277;1016699;-75
2022/08/21 09:08:31;;;;;;;6.20;5.60;;;;;;;19.20;100.00;98221.66;109642;1276;1017113;-76
2022/08/21 09:15:01;;;;;;;;;;;;;;;;;;;;;
2022/08/21 09:21:09;;;;;;;8.90;7.20;;;;;;;19.00;100.00;98214.55;109769;1281;1015967;-75
2022/08/21 09:26:48;;;;;;;14.90;9.60;;;;;;;18.87;100.00;98219.70;109500;1283;1016323;-74
2022/08/21 09:31:53;;;;;;;11.00;7.90;;;;;;;18.80;100.00;98218.71;109877;1277;1016642;-75
2022/08/21 09:36:59;;;;;;;9.50;7.50;;;;;;;18.71;100.00;98232.31;109833;1276;1016429;-75
2022/08/21 09:42:07;;;;;;;11.80;8.50;;;;;;;18.66;100.00;98230.98;109772;1276;1016557;-75
2022/08/21 09:47:14;;;;;;;14.00;9.00;;;;;;;18.52;100.00;98224.23;109808;1276;1016645;-74
2022/08/21 09:52:33;;;;;;;11.00;8.50;;;;;;;18.42;100.00;98222.79;109869;1276;1016520;-74
2022/08/21 09:57:38;;;;;;;11.20;8.30;;;;;;;18.32;100.00;98225.19;109755;1277;1016395;-75
2022/08/21 10:03:24;;;;;;;12.10;8.30;;;;;;;18.24;100.00;98219.77;109872;1276;1019517;-75
2022/08/21 10:08:43;;;;;;;9.50;7.10;;;;;;;18.18;100.00;98213.34;109883;1277;1016334;-77
2022/08/21 10:14:27;;;;;;;9.90;7.80;;;;;;;18.17;100.00;98215.26;110045;1276;1017140;-80
2022/08/21 10:20:11;;;;;;;11.20;8.00;;;;;;;18.18;100.00;98218.45;110269;1276;1016388;-82
2022/08/21 10:25:44;;;;;;;10.20;7.10;;;;;;;18.18;100.00;98228.61;109935;1277;1016265;-82
2022/08/21 10:31:46;;;;;;;8.20;6.50;;;;;;;18.14;100.00;98239.52;110227;1276;1016324;-81
2022/08/21 10:37:39;;;;;;;9.80;6.40;;;;;;;18.10;100.00;98252.66;110046;1276;1016593;-82
2022/08/21 10:43:38;;;;;;;10.30;5.70;;;;;;;18.09;100.00;98237.76;110248;1276;1019224;-83
2022/08/21 10:49:21;;;;;;;9.60;6.20;;;;;;;18.08;100.00;98228.22;110100;1276;1016737;-81
2022/08/21 10:55:24;;;;;;;;;;;;;;;;;;;;;
2022/08/21 11:01:33;;;;;;;9.30;5.80;;;;;;;18.07;100.00;98254.29;110274;1276;1016072;-83
2022/08/21 11:07:01;;;;;;;4.40;3.90;;;;;;;18.13;100.00;98247.15;110210;1276;1016625;-80
2022/08/21 11:13:16;;;;;;;5.70;2.30;;;;;;;18.18;100.00;98256.88;110140;1277;1016180;-79
2022/08/21 11:19:27;;;;;;;;;;;;;;;;;;;;;
2022/08/21 11:24:51;;;;;;;2.70;2.10;;;;;;;18.17;100.00;98249.01;110210;1276;1016469;-82
2022/08/21 11:29:59;;;;;;;3.70;1.90;;;;;;;18.13;100.00;98250.41;110228;1277;1016441;-82
2022/08/21 11:35:40;;;;;;;2.20;1.40;;;;;;;17.95;100.00;98250.42;110277;1276;1016351;-82
2022/08/21 11:41:31;;;;;;;2.80;1.80;;;;;;;17.69;100.00;98250.70;110054;1277;1017618;-83
2022/08/21 11:48:08;;;;;;;;;;;;;;;;;;;;;
2022/08/21 11:53:40;;;;;;;1.20;1.10;;;;;;;17.20;100.00;98268.38;109823;1279;1016688;-84
2022/08/21 11:59:20;;;;;;;;;;;;;;;16.97;100.00;98273.06;110211;1276;1016814;-87
2022/08/21 12:04:58;;;;;;;1.60;1.50;;;;;;;16.81;100.00;98269.25;109994;1276;1016201;-81
2022/08/21 12:11:07;;;;;;;;;;;;;;;;;;;;;
2022/08/21 12:16:56;;;;;;;1.90;1.80;;;;;;;16.66;100.00;98278.23;109905;1281;1016415;-81
2022/08/21 12:23:40;;;;;;;;;;;;;;;;;;;;;
2022/08/21 12:29:24;;;;;;;2.60;2.40;;;;;;;16.51;100.00;98289.55;109805;1282;1018667;-80
2022/08/21 12:34:40;;;;;;;5.10;2.40;;;;;;;16.45;100.00;98289.51;109881;1282;1016042;-81
2022/08/21 12:39:47;;;;;;;2.40;2.20;;;;;;;16.38;100.00;98286.77;109875;1279;1017461;-80
2022/08/21 12:45:19;;;;;;;2.70;2.50;;;;;;;16.39;100.00;98281.05;110187;1278;1017790;-81
2022/08/21 12:50:36;;;;;;;3.20;2.90;;;;;;;16.43;100.00;98282.63;110110;1276;1016204;-81
2022/08/21 12:55:44;;;;;;;3.30;3.00;;;;;;;16.38;100.00;98285.59;110046;1276;1016286;-79
2022/08/21 13:01:42;;;;;;;;;;;;;;;16.34;100.00;98282.45;109919;1278;1018759;-79
2022/08/21 13:07:33;;;;;;;;;;;;;;;;;;;;;
2022/08/21 13:13:08;;;;;;;4.80;4.20;;;;;;;16.25;100.00;98291.20;110195;1276;1017835;-80
2022/08/21 13:18:42;;;;;;;4.70;4.20;;;;;;;16.31;100.00;98296.08;110058;1276;1016587;-80
2022/08/21 13:24:43;;;;;;;6.20;3.40;;;;;;;16.30;100.00;98292.98;110308;1276;1016704;-78
2022/08/21 13:30:30;;;;;;;4.70;4.20;;;;;;;16.27;100.00;98290.03;109965;1279;1016675;-78
2022/08/21 13:36:11;;;;;;;4.20;3.80;;;;;;;16.28;100.00;98290.21;109925;1280;1016525;-78
2022/08/21 13:42:05;;;;;;;5.40;4.90;;;;;;;16.29;100.00;98294.73;109766;1280;1016555;-80
2022/08/21 13:47:27;;;;;;;6.60;5.00;;;;;;;16.29;100.00;98299.19;108545;1279;2836455;-79
2022/08/21 13:53:55;;;;;;;;;;;;;;;;;;;;;
2022/08/21 13:59:45;;;;;;;11.10;7.90;;;;;;;16.19;100.00;98305.53;109982;1278;1017319;-80
2022/08/21 14:05:50;;;;;;;9.10;7.20;;;;;;;16.09;100.00;98296.64;110207;1276;1018894;-81
2022/08/21 14:11:13;;;;;;;11.10;8.40;;;;;;;15.94;100.00;98307.65;109930;1280;1016387;-83
2022/08/21 14:17:37;;;;;;;14.80;10.00;;;;;;;15.79;100.00;98317.17;109770;1280;1017116;-83
2022/08/21 14:23:17;;;;;;;;;;;;;;;;;;;;;
2022/08/21 14:28:50;;;;;;;12.90;9.10;;;;;;;15.57;100.00;98316.55;109937;1280;1016459;-82
2022/08/21 14:34:05;;;;;;;15.10;10.10;;;;;;;15.52;100.00;98321.16;109915;1280;1017154;-82
2022/08/21 14:39:52;;;;;;;15.40;9.20;;;;;;;15.44;100.00;98318.02;109928;1280;1018685;-82
2022/08/21 14:45:24;;;;;;;13.80;8.50;;;;;;;15.36;100.00;98314.80;109835;1280;1016749;-82
2022/08/21 14:50:38;;;;;;;10.20;7.00;;;;;;;15.28;100.00;98315.23;109669;1279;1016438;-82
2022/08/21 15:01:49;;;;;;;10.90;7.70;;;;;;;15.24;100.00;98318.16;110185;1276;1016106;-82
2022/08/21 15:07:23;;;;;;;11.80;7.00;;;;;;;15.22;100.00;98316.71;110100;1274;1018318;-82
2022/08/21 15:12:42;;;;;;;11.30;7.00;;;;;;;15.22;100.00;98319.20;110151;1276;1018748;-82
2022/08/21 15:17:47;;;;;;;11.10;6.90;;;;;;;15.21;100.00;98317.53;110129;1277;1016509;-82
2022/08/21 15:23:08;;;;;;;10.10;7.10;;;;;;;15.21;100.00;98316.45;110049;1278;1016569;-82
2022/08/21 15:29:02;;;;;;;12.40;7.90;;;;;;;15.24;100.00;98321.80;110062;1276;1015968;-81
2022/08/21 15:34:44;;;;;;;13.10;7.70;;;;;;;15.26;100.00;98329.80;110105;1276;1016320;-83
2022/08/21 15:40:04;;;;;;;10.80;7.10;;;;;;;15.27;100.00;98340.46;110153;1277;1016441;-81
2022/08/21 15:45:37;;;;;;;13.50;7.80;;;;;;;15.28;100.00;98333.46;110190;1277;1016410;-81
2022/08/21 15:51:03;;;;;;;12.60;7.60;;;;;;;15.30;100.00;98336.42;110157;1274;1016621;-81
2022/08/21 15:56:51;;;;;;;11.70;7.70;;;;;;;15.30;100.00;98334.83;110241;1277;1017652;-80
2022/08/21 16:02:33;;;;;;;10.40;7.30;;;;;;;15.29;100.00;98329.69;109828;1280;1017699;-81
2022/08/21 16:13:37;;;;;;;12.10;7.70;;;;;;;15.28;100.00;98327.46;110079;1279;1017035;-82
2022/08/21 16:19:05;;;;;;;;;;;;;;;;;;;;;
2022/08/21 16:25:04;;;;;;;14.70;9.50;;;;;;;15.32;100.00;98340.42;109950;1276;1016464;-81
2022/08/21 16:30:58;;;;;;;15.30;9.20;;;;;;;15.33;100.00;98340.60;110051;1276;1018167;-81
2022/08/21 16:36:35;;;;;;;12.00;8.20;;;;;;;15.28;100.00;98338.52;110166;1276;1018781;-80
2022/08/21 16:42:08;;;;;;;14.30;9.50;;;;;;;15.25;100.00;98348.34;110034;1280;1016223;-80
2022/08/21 16:47:43;;;;;;;17.10;10.00;;;;;;;15.23;100.00;98349.45;109992;1280;1016616;-82
2022/08/21 16:53:14;;;;;;;15.90;9.50;;;;;;;15.20;100.00;98346.93;110058;1280;1016508;-84
2022/08/21 16:59:27;;;;;;;;;;;;;;;;;;;;;
2022/08/21 17:05:10;;;;;;;13.00;8.10;;;;;;;15.14;100.00;98341.17;109944;1280;1017633;-82
2022/08/21 17:10:58;;;;;;;13.80;8.60;;;;;;;15.14;100.00;98340.47;109998;1277;1018194;-81
2022/08/21 17:16:05;;;;;;;12.50;8.50;;;;;;;15.14;100.00;98348.09;110246;1276;1018545;-80
2022/08/21 17:21:25;;;;;;;18.30;9.40;;;;;;;15.18;100.00;98351.02;110128;1278;1018020;-80
2022/08/21 17:26:55;;;;;;;11.20;6.60;;;;;;;15.19;100.00;98346.08;110031;1277;1016285;-80
2022/08/21 17:32:23;;;;;;;9.80;5.50;;;;;;;15.13;100.00;98326.41;110134;1277;1016611;-80
2022/08/21 17:37:54;;;;;;;9.20;5.40;;;;;;;15.05;100.00;98324.95;110145;1277;1016734;-81
2022/08/21 17:43:13;;;;;;;8.10;6.10;;;;;;;14.99;100.00;98328.28;109910;1277;1016729;-83
2022/08/21 17:48:28;;;;;;;8.50;5.90;;;;;;;14.98;100.00;98329.73;110073;1277;1016628;-82
2022/08/21 17:53:33;;;;;;;6.20;4.20;;;;;;;14.99;100.00;98322.96;110086;1277;1016623;-83
2022/08/21 17:58:51;;;;;;;6.20;3.80;;;;;;;14.98;100.00;98320.31;109970;1277;1016457;-83
2022/08/21 18:04:20;;;;;;;4.80;3.60;;;;;;;14.95;100.00;98316.02;110089;1276;1016490;-81
2022/08/21 18:09:46;;;;;;;4.30;3.40;;;;;;;14.93;100.00;98315.09;110165;1276;1016583;-83
2022/08/21 18:15:09;;;;;;;4.70;3.80;;;;;;;14.94;100.00;98325.02;110110;1277;1016681;-83
2022/08/21 18:20:42;;;;;;;5.90;3.90;;;;;;;14.99;100.00;98324.80;110128;1276;1016251;-84
2022/08/21 18:26:06;;;;;;;6.40;4.10;;;;;;;15.04;100.00;98326.86;110070;1276;1016704;-83
2022/08/21 18:31:49;;;;;;;4.30;3.30;;;;;;;15.08;100.00;98328.54;110238;1276;1016638;-84
2022/08/21 18:37:36;;;;;;;4.50;3.30;;;;;;;15.09;100.00;98331.96;110198;1276;1016716;-84
2022/08/21 18:43:08;;;;;;;5.00;4.00;;;;;;;15.09;100.00;98326.86;110031;1276;1018772;-84
2022/08/21 18:48:31;;;;;;;5.40;3.80;;;;;;;15.08;100.00;98325.66;110219;1276;1016691;-85
2022/08/21 18:53:50;;;;;;;5.60;4.20;;;;;;;15.10;100.00;98329.29;110218;1277;1016361;-85
2022/08/21 18:58:57;;;;;;;5.80;4.10;;;;;;;15.13;100.00;98325.17;110039;1277;1017348;-84
2022/08/21 19:04:06;;;;;;;5.00;3.40;;;;;;;15.17;100.00;98327.46;110192;1277;1017266;-84
2022/08/21 19:09:52;;;;;;;6.00;4.40;;;;;;;15.20;100.00;98325.12;110104;1276;1017431;-84
2022/08/21 19:16:07;;;;;;;;;;;;;;;;;;;;;
2022/08/21 19:22:06;;;;;;;6.00;4.80;;;;;;;15.27;100.00;98334.59;110144;1277;1016898;-83
2022/08/21 19:27:40;;;;;;;7.50;5.90;;;;;;;15.29;100.00;98328.04;109921;1280;1018075;-84
2022/08/21 19:33:20;;;;;;;7.70;5.40;;;;;;;15.31;100.00;98327.08;109965;1279;1016561;-84
2022/08/21 19:38:26;;;;;;;8.20;5.60;;;;;;;15.31;100.00;98327.28;109826;1280;1016679;-84
2022/08/21 19:43:57;;;;;;;6.20;5.00;;;;;;;15.34;100.00;98322.38;109778;1279;1016248;-83
2022/08/21 19:49:24;;;;;;;5.30;4.40;;;;;;;15.35;100.00;98319.56;109639;1278;1016506;-85
2022/08/21 19:55:27;;;;;;;6.10;3.90;;;;;;;15.31;100.00;98301.21;109921;1279;1016572;-84
2022/08/21 20:00:30;;;;;;;3.70;3.30;;;;;;;15.30;100.00;98286.25;110015;1279;1016508;-84
2022/08/21 20:05:34;;;;;;;4.00;3.50;;;;;;;15.31;100.00;98276.40;110122;1278;1019018;-84
2022/08/21 20:10:43;;;;;;;3.90;3.30;;;;;;;15.31;100.00;98275.39;110121;1278;1016389;-84
2022/08/21 20:15:56;;;;;;;5.60;3.40;;;;;;;15.31;100.00;98275.48;110092;1278;1016561;-84
2022/08/21 20:21:19;;;;;;;4.90;3.60;;;;;;;15.33;100.00;98279.09;109646;1282;1016894;-83
2022/08/21 20:27:09;;;;;;;5.00;3.80;;;;;;;15.38;100.00;98284.75;109414;1284;1016417;-83
2022/08/21 20:32:25;;;;;;;5.30;4.00;;;;;;;15.45;100.00;98275.25;109782;1285;1015792;-84
2022/08/21 20:38:18;;;;;;;5.60;3.90;;;;;;;15.47;100.00;98265.09;109342;1287;1016503;-83
2022/08/21 20:44:40;;;;;;;5.60;4.40;;;;;;;15.52;100.00;98276.58;109306;1287;1016463;-84
2022/08/21 20:50:28;;;;;;;5.00;3.60;;;;;;;15.57;100.00;98279.52;109319;1287;1016104;-83
2022/08/21 20:55:52;;;;;;;4.10;3.30;;;;;;;15.61;100.00;98273.80;109360;1285;1016393;-83
2022/08/21 21:01:18;;;;;;;5.10;3.30;;;;;;;15.65;100.00;98266.52;109625;1282;1016395;-83
2022/08/21 21:06:37;;;;;;;3.20;2.80;;;;;;;15.69;100.00;98264.84;109789;1280;1017125;-82
2022/08/21 21:11:54;;;;;;;3.20;2.30;;;;;;;15.74;100.00;98260.73;109940;1279;1016497;-82
2022/08/21 21:17:12;;;;;;;2.60;1.90;;;;;;;15.78;100.00;98261.67;110088;1276;1016825;-81
2022/08/21 21:22:26;;;;;;;4.50;2.10;;;;;;;15.80;100.00;98255.34;110175;1277;1019600;-81
2022/08/21 21:28:43;;;;;;;;;;;;;;;;;;;;;
2022/08/21 21:34:09;;;;;;;1.80;1.30;;;;;;;15.80;100.00;98243.20;109839;1280;1016310;-87
2022/08/21 21:39:51;;;;;;;1.90;1.20;;;;;;;15.80;100.00;98245.45;110213;1280;1016822;-86
2022/08/21 21:45:36;;;;;;;;;;;;;;;;;;;;;
2022/08/21 21:51:53;;;;;;;;;;;;;;;;;;;;;
2022/08/21 21:57:56;;;;;;;;;;;;;;;;;;;;;
2022/08/21 22:03:49;;;;;;;0.60;0.60;;;;;;;15.91;100.00;98257.02;109918;1278;1018309;-84
2022/08/21 22:09:03;;;;;;;1.30;0.80;;;;;;;15.91;100.00;98251.20;109887;1280;1018359;-82
2022/08/21 22:14:14;;;;;;;1.10;0.80;;;;;;;15.89;100.00;98252.25;109994;1277;1016390;-84
2022/08/21 22:19:23;;;;;;;0.80;0.80;;;;;;;15.88;100.00;98249.44;110095;1276;1016279;-82
2022/08/21 22:24:51;;;;;;;0.90;0.80;;;;;;;15.85;100.00;98242.31;109954;1277;1016575;-85
2022/08/21 22:29:58;;;;;;;1.70;1.00;;;;;;;15.84;100.00;98242.66;110202;1276;1016300;-84
2022/08/21 22:35:16;;;;;;;1.00;0.50;;;;;;;15.82;100.00;98241.52;110129;1277;1016339;-84
2022/08/21 22:41:26;;;;;;;;;;;;;;;;;;;;;
2022/08/21 22:46:42;;;;;;;0.50;0.50;;;;;;;15.71;100.00;98243.35;110195;1275;1018744;-84
2022/08/21 22:51:49;;;;;;;0.60;0.60;;;;;;;15.67;100.00;98241.14;110100;1278;1016926;-82
2022/08/21 22:57:43;;;;;;;0.60;0.60;;;;;;;15.61;100.00;98241.34;109872;1281;1016201;-85
2022/08/21 23:03:57;;;;;;;0.80;0.80;;;;;;;15.58;100.00;98244.38;110024;1277;1019165;-86
2022/08/21 23:10:11;;;;;;;1.80;0.70;;;;;;;15.55;100.00;98233.95;110171;1278;1016730;-84
2022/08/21 23:15:59;;;;;;;;;;;;;;;;;;;;;
2022/08/21 23:21:54;;;;;;;3.00;0.90;;;;;;;15.47;100.00;98232.39;109861;1281;1017832;-83
2022/08/21 23:28:04;;;;;;;1.60;0.90;;;;;;;15.43;100.00;98225.70;110085;1278;1016684;-85
2022/08/21 23:34:36;;;;;;;0.80;0.80;;;;;;;15.39;100.00;98227.02;110096;1277;1018787;-84
2022/08/21 23:41:15;;;;;;;;;;;;;;;;;;;;;
2022/08/21 23:47:49;;;;;;;;;;;;;;;;;;;;;
2022/08/21 23:54:12;;;;;;;1.30;1.20;;;;;;;15.29;100.00;98219.02;110004;1276;1016261;-84
